Toomsboro, Georgia
Current Conditions -  °F | °C
As of 11:35 AM on Friday 24 Oct 2014 (Local Time) from KOKZ Reporting Station
Clear Clear  
Wind Chill: 66°   Ceiling: Unl
Heat Index: 66°   Visibility: 10mi
Dew Point: 49°   Wind: 0mph
Humidity: 54%   Direction: NA
Pressure: 30.09"   Gusts: NA
Location:  32.83°N, 83.08°W
Report Text: KOKZ 241535Z AUTO 00000KT 10SM CLR 19/09 A3009 RMK AO2 T01890093
Loading
Personal Weather Stations






























Interactive Weather Map
Tropical Storm Tracking
New forecast layout! Learn more

10-Day Weather Forecast

Advertisements
Track Severe Weather on mobile